Time;durP1;ratioP1;P1;durP2;ratioP2;P2;SDS_P1;SDS_P2;PMS_P1;PMS_P2;Temp;Humidity;BMP_temperature;BMP_pressure;BME280_temperature;BME280_humidity;BME280_pressure;Samples;Min_cycle;Max_cycle;Signal;HPM_P1;HPM_P2
2021/10/13 00:02:01;;;;;;;0.40;0.40;;;;;;;6.40;100.00;95736.28;5023334;28;20700;-66
2021/10/13 00:04:29;;;;;;;1.20;0.90;;;;;;;6.37;100.00;95747.91;5021560;28;20223;-66
2021/10/13 00:06:57;;;;;;;1.17;0.30;;;;;;;6.31;100.00;95743.28;5014015;28;20704;-66
2021/10/13 00:09:25;;;;;;;0.50;0.43;;;;;;;6.32;100.00;95739.69;5024121;28;20788;-66
2021/10/13 00:11:53;;;;;;;0.87;0.70;;;;;;;6.30;100.00;95749.47;5025187;28;20254;-66
2021/10/13 00:14:22;;;;;;;3.20;1.10;;;;;;;6.18;100.00;95748.94;5020092;28;20246;-65
2021/10/13 00:16:54;;;;;;;0.60;0.60;;;;;;;6.21;100.00;95763.50;5024729;28;20223;-66
2021/10/13 00:19:25;;;;;;;0.33;0.33;;;;;;;6.18;100.00;95758.59;5026983;28;20243;-66
2021/10/13 00:21:53;;;;;;;2.07;0.67;;;;;;;6.19;100.00;95763.69;5026247;28;20219;-65
2021/10/13 00:24:21;;;;;;;0.50;0.50;;;;;;;6.19;100.00;95770.72;5026242;28;20254;-66
2021/10/13 00:26:49;;;;;;;1.00;1.00;;;;;;;5.97;100.00;95767.63;5021777;28;20259;-64
2021/10/13 00:29:17;;;;;;;0.50;0.50;;;;;;;5.89;100.00;95770.16;5028344;28;20811;-65
2021/10/13 00:31:45;;;;;;;1.57;1.07;;;;;;;5.90;100.00;95771.81;5023378;28;20224;-65
2021/10/13 00:34:14;;;;;;;1.70;1.60;;;;;;;5.91;100.00;95773.47;5024686;28;20220;-66
2021/10/13 00:36:44;;;;;;;0.50;0.50;;;;;;;5.92;100.00;95780.34;5025400;28;20224;-66
2021/10/13 00:39:12;;;;;;;0.73;0.57;;;;;;;5.97;100.00;95777.28;5019880;28;20268;-65
2021/10/13 00:41:41;;;;;;;0.80;0.80;;;;;;;5.98;100.00;95779.75;5020588;28;20333;-65
2021/10/13 00:44:09;;;;;;;0.80;0.70;;;;;;;6.02;100.00;95790.72;5024130;28;20235;-65
2021/10/13 00:46:37;;;;;;;1.00;1.00;;;;;;;6.02;100.00;95789.91;5025692;28;20242;-66
2021/10/13 00:49:05;;;;;;;0.70;0.70;;;;;;;6.08;100.00;95789.31;5026552;28;20708;-66
2021/10/13 00:51:35;;;;;;;2.27;1.53;;;;;;;6.07;100.00;95798.16;5024709;28;20273;-66
2021/10/13 00:54:04;;;;;;;1.17;0.87;;;;;;;6.12;100.00;95795.88;5025734;28;20308;-66
2021/10/13 00:56:32;;;;;;;1.20;0.80;;;;;;;6.13;100.00;95787.06;5008920;28;20226;-65
2021/10/13 00:59:00;;;;;;;1.20;1.10;;;;;;;6.15;100.00;95791.19;5012827;28;20315;-65
2021/10/13 01:01:33;;;;;;;1.27;1.17;;;;;;;6.17;100.00;95793.63;5009236;28;20696;-66
2021/10/13 01:04:18;;;;;;;1.10;0.83;;;;;;;6.13;100.00;95797.56;5008604;28;20251;-66
2021/10/13 01:06:58;;;;;;;0.80;0.70;;;;;;;6.16;100.00;95797.25;5012770;28;20235;-66
2021/10/13 01:09:32;;;;;;;1.00;1.00;;;;;;;6.19;100.00;95802.16;5008744;28;20925;-66
2021/10/13 01:12:13;;;;;;;1.47;1.30;;;;;;;6.10;100.00;95803.06;5011520;28;20227;-66
2021/10/13 01:14:47;;;;;;;2.50;1.63;;;;;;;6.13;100.00;95813.28;5007435;28;20358;-65
2021/10/13 01:17:23;;;;;;;1.40;1.07;;;;;;;6.17;100.00;95814.59;5024196;28;20378;-66
2021/10/13 01:20:01;;;;;;;1.97;1.40;;;;;;;6.22;100.00;95810.56;5020604;28;20531;-66
2021/10/13 01:23:11;;;;;;;1.60;1.03;;;;;;;6.21;100.00;95815.94;5006299;28;20251;-65
2021/10/13 01:25:48;;;;;;;1.77;1.37;;;;;;;6.24;100.00;95826.13;5012201;28;20510;-66
2021/10/13 01:28:21;;;;;;;1.87;1.77;;;;;;;6.25;100.00;95818.09;5024266;28;20219;-66
2021/10/13 01:30:57;;;;;;;1.77;1.67;;;;;;;6.28;100.00;95817.78;5019292;28;20266;-67
2021/10/13 01:33:34;;;;;;;2.13;2.03;;;;;;;6.28;100.00;95828.28;5010566;28;20241;-66
2021/10/13 01:36:07;;;;;;;3.17;2.90;;;;;;;6.26;100.00;95817.13;5007565;28;20318;-66
2021/10/13 01:38:40;;;;;;;3.37;2.13;;;;;;;6.25;100.00;95819.91;5017239;28;20235;-66
2021/10/13 01:41:11;;;;;;;2.30;2.20;;;;;;;6.26;100.00;95829.41;5013901;28;20252;-66
2021/10/13 01:43:44;;;;;;;2.33;2.23;;;;;;;6.24;100.00;95832.19;5024200;28;20224;-66
2021/10/13 01:46:13;;;;;;;2.97;2.77;;;;;;;6.26;100.00;95834.66;5021320;28;20231;-65
2021/10/13 01:48:42;;;;;;;2.20;2.10;;;;;;;6.26;100.00;95835.47;5018469;28;20215;-65
2021/10/13 01:51:12;;;;;;;1.97;1.87;;;;;;;6.30;100.00;95840.38;5022987;28;20497;-66
2021/10/13 01:53:42;;;;;;;2.73;2.13;;;;;;;6.34;100.00;95837.31;5024078;28;20244;-66
2021/10/13 01:56:13;;;;;;;2.00;1.90;;;;;;;6.30;100.00;95843.84;5023755;28;20704;-66
2021/10/13 01:58:44;;;;;;;2.83;2.53;;;;;;;6.23;100.00;95845.44;5019221;28;20224;-66
2021/10/13 02:01:15;;;;;;;3.03;2.83;;;;;;;6.20;100.00;95843.09;5023435;28;20224;-65
2021/10/13 02:03:45;;;;;;;3.43;3.13;;;;;;;6.20;100.00;95856.22;5021879;28;20431;-66
2021/10/13 02:06:35;;;;;;;3.00;2.67;;;;;;;6.21;100.00;95858.66;5019043;28;20732;-66
2021/10/13 02:09:05;;;;;;;2.50;2.30;;;;;;;6.24;100.00;95853.16;5025545;28;20243;-66
2021/10/13 02:11:35;;;;;;;2.17;2.07;;;;;;;6.27;100.00;95867.72;5019646;28;20211;-66
2021/10/13 02:14:09;;;;;;;2.70;2.60;;;;;;;6.30;100.00;95859.56;5019710;28;20226;-66
2021/10/13 02:16:39;;;;;;;2.63;2.43;;;;;;;6.34;100.00;95860.09;5019149;28;20223;-66
2021/10/13 02:19:10;;;;;;;1.83;1.73;;;;;;;6.36;100.00;95860.75;5025235;28;20216;-66
2021/10/13 02:21:40;;;;;;;2.23;1.63;;;;;;;6.35;100.00;95854.69;5023355;28;20778;-66
2021/10/13 02:24:09;;;;;;;3.40;2.33;;;;;;;6.33;100.00;95856.66;5020979;28;20786;-66
2021/10/13 02:26:43;;;;;;;4.33;3.27;;;;;;;6.33;100.00;95861.06;5024343;28;20236;-66
2021/10/13 02:29:15;;;;;;;2.90;2.70;;;;;;;6.32;100.00;95865.50;5039417;28;20313;-66
2021/10/13 02:31:44;;;;;;;2.73;2.53;;;;;;;6.31;100.00;95866.47;5024877;28;20227;-66
2021/10/13 02:34:13;;;;;;;3.57;3.37;;;;;;;6.31;100.00;95879.56;5017546;28;20231;-66
2021/10/13 02:36:42;;;;;;;2.87;2.67;;;;;;;6.28;100.00;95880.69;5022090;28;20303;-65
2021/10/13 02:39:10;;;;;;;4.30;2.33;;;;;;;6.24;100.00;95881.16;5010959;28;20233;-65
2021/10/13 02:41:39;;;;;;;1.77;1.67;;;;;;;6.25;100.00;95880.16;5006878;28;21480;-66
2021/10/13 02:44:08;;;;;;;3.00;2.77;;;;;;;6.25;100.00;95888.03;5009239;28;20589;-65
2021/10/13 02:46:44;;;;;;;2.40;2.30;;;;;;;6.24;100.00;95883.78;5005805;28;20776;-66
2021/10/13 02:49:22;;;;;;;3.00;2.80;;;;;;;6.23;100.00;95890.00;5022248;28;20324;-65
2021/10/13 02:52:00;;;;;;;3.47;3.27;;;;;;;6.22;100.00;95893.59;5006847;28;20215;-64
2021/10/13 02:54:33;;;;;;;2.07;1.97;;;;;;;6.29;100.00;95886.75;5007132;28;20216;-66
2021/10/13 02:57:03;;;;;;;2.63;2.53;;;;;;;6.25;100.00;95893.28;5011130;28;20322;-66
2021/10/13 02:59:35;;;;;;;2.60;2.40;;;;;;;6.27;100.00;95893.94;5022995;28;20302;-66
2021/10/13 03:02:14;;;;;;;2.27;2.17;;;;;;;6.22;100.00;95906.69;5018776;28;20216;-66
2021/10/13 03:04:48;;;;;;;3.47;3.20;;;;;;;6.18;100.00;95906.16;5024035;28;20223;-65
2021/10/13 03:07:21;;;;;;;3.77;3.57;;;;;;;6.19;100.00;95906.97;5014960;28;20288;-66
2021/10/13 03:09:53;;;;;;;2.77;2.57;;;;;;;6.18;100.00;95905.34;5008029;28;20294;-66
2021/10/13 03:12:25;;;;;;;2.97;2.77;;;;;;;6.21;100.00;95910.25;5005383;28;20230;-65
2021/10/13 03:14:56;;;;;;;3.07;2.87;;;;;;;6.22;100.00;95910.13;5016758;28;20650;-65
2021/10/13 03:17:26;;;;;;;3.37;3.17;;;;;;;6.30;100.00;95909.34;5013868;28;20909;-65
2021/10/13 03:19:56;;;;;;;5.77;3.50;;;;;;;6.26;100.00;95902.78;5017747;28;20230;-66
2021/10/13 03:22:26;;;;;;;3.10;2.90;;;;;;;6.26;100.00;95908.03;5017759;28;20234;-66
2021/10/13 03:24:54;;;;;;;2.70;2.60;;;;;;;6.29;100.00;95915.56;5014931;28;20294;-66
2021/10/13 03:27:26;;;;;;;3.07;2.87;;;;;;;6.31;100.00;95913.66;5006230;28;20278;-66
2021/10/13 03:29:54;;;;;;;3.77;3.47;;;;;;;6.31;100.00;95905.78;5021268;28;20646;-65
2021/10/13 03:32:22;;;;;;;3.00;2.80;;;;;;;6.31;100.00;95911.03;5010540;28;20234;-67
2021/10/13 03:34:52;;;;;;;2.90;2.80;;;;;;;6.32;100.00;95917.91;5012110;28;20263;-66
2021/10/13 03:37:20;;;;;;;3.37;3.17;;;;;;;6.34;100.00;95923.81;5021603;28;20318;-66
2021/10/13 03:39:49;;;;;;;3.10;2.90;;;;;;;6.38;100.00;95921.72;5015617;28;20282;-66
2021/10/13 03:42:17;;;;;;;2.50;2.30;;;;;;;6.38;100.00;95927.78;5014070;28;21456;-65
2021/10/13 03:44:45;;;;;;;2.67;2.47;;;;;;;6.43;100.00;95928.16;5008439;28;20226;-66
2021/10/13 03:47:13;;;;;;;2.57;2.47;;;;;;;6.46;100.00;95919.97;5010242;28;20227;-66
2021/10/13 03:49:41;;;;;;;2.33;2.13;;;;;;;6.47;100.00;95932.09;5010162;28;20606;-64
2021/10/13 03:52:10;;;;;;;3.20;3.00;;;;;;;6.50;100.00;95941.50;5024475;28;20215;-65
2021/10/13 03:54:38;;;;;;;2.43;2.33;;;;;;;6.52;100.00;95942.16;5022086;28;20370;-66
2021/10/13 03:57:06;;;;;;;2.10;2.00;;;;;;;6.52;100.00;95935.09;5010996;28;20316;-65
2021/10/13 03:59:36;;;;;;;3.13;2.87;;;;;;;6.52;100.00;95944.78;5007626;28;20476;-66
2021/10/13 04:02:04;;;;;;;3.10;2.80;;;;;;;6.50;100.00;95942.31;5011449;28;20252;-64
2021/10/13 04:04:32;;;;;;;2.23;2.13;;;;;;;6.51;100.00;95953.63;5013400;28;20233;-65
2021/10/13 04:07:01;;;;;;;3.27;3.07;;;;;;;6.47;100.00;95957.50;5007968;28;20630;-66
2021/10/13 04:09:31;;;;;;;1.97;1.87;;;;;;;6.48;99.97;95962.59;5012831;28;20311;-66
2021/10/13 04:11:59;;;;;;;2.80;2.60;;;;;;;6.45;99.79;95965.53;5006046;28;22591;-66
2021/10/13 04:14:26;;;;;;;2.70;2.50;;;;;;;6.47;99.64;95966.19;5009306;28;20252;-66
2021/10/13 04:16:54;;;;;;;2.23;2.13;;;;;;;6.40;99.96;95967.78;5011124;28;20224;-64
2021/10/13 04:19:23;;;;;;;2.67;2.53;;;;;;;6.37;99.97;95973.31;5011448;28;20790;-63
2021/10/13 04:21:51;;;;;;;1.63;1.53;;;;;;;6.35;99.87;95967.41;5008320;28;20224;-66
2021/10/13 04:24:19;;;;;;;1.23;1.13;;;;;;;6.33;99.68;95971.16;5016086;28;20323;-65
2021/10/13 04:26:48;;;;;;;1.10;1.00;;;;;;;6.24;99.48;95978.94;5022132;28;20835;-64
2021/10/13 04:29:17;;;;;;;1.20;0.73;;;;;;;6.14;99.45;95978.19;5024652;28;20643;-66
2021/10/13 04:31:44;;;;;;;0.90;0.80;;;;;;;6.13;99.43;95986.19;5025927;28;20220;-66
2021/10/13 04:34:13;;;;;;;1.10;0.97;;;;;;;6.07;99.00;95981.53;5025917;28;20305;-65
2021/10/13 04:36:41;;;;;;;0.80;0.80;;;;;;;6.04;98.72;95982.66;5020908;28;20215;-66
2021/10/13 04:39:09;;;;;;;1.43;1.33;;;;;;;5.99;98.63;95985.72;5026100;28;20246;-65
2021/10/13 04:41:37;;;;;;;0.67;0.67;;;;;;;5.96;98.65;95982.56;5024733;28;20278;-65
2021/10/13 04:44:06;;;;;;;0.57;0.57;;;;;;;5.89;98.66;95990.16;5017524;28;20293;-66
2021/10/13 04:46:34;;;;;;;0.67;0.63;;;;;;;5.90;98.77;95989.22;5020984;28;20654;-64
2021/10/13 04:49:02;;;;;;;0.73;0.60;;;;;;;5.89;98.77;95989.34;5025948;28;20333;-65
2021/10/13 04:51:30;;;;;;;0.67;0.60;;;;;;;5.94;98.88;95982.72;5025699;28;20303;-64
2021/10/13 04:53:58;;;;;;;0.70;0.70;;;;;;;5.97;99.02;95992.09;5024101;28;20258;-66
2021/10/13 04:56:27;;;;;;;5.80;0.80;;;;;;;6.03;99.36;96001.13;5038442;28;20371;-66
2021/10/13 04:58:55;;;;;;;1.03;0.70;;;;;;;6.02;99.27;95995.06;5022712;28;20342;-65
2021/10/13 05:01:24;;;;;;;0.77;0.77;;;;;;;6.02;99.26;95994.25;5020309;28;20678;-65
2021/10/13 05:03:53;;;;;;;3.87;2.60;;;;;;;6.05;99.25;95999.22;5023944;28;20235;-65
2021/10/13 05:06:21;;;;;;;1.07;1.07;;;;;;;6.06;99.18;96000.84;5024691;28;20647;-65
2021/10/13 05:08:49;;;;;;;0.90;0.80;;;;;;;6.04;99.16;96008.03;5025547;28;20341;-65
2021/10/13 05:11:17;;;;;;;0.93;0.93;;;;;;;6.12;98.88;96000.25;5019810;28;20266;-66
2021/10/13 05:13:45;;;;;;;1.13;0.93;;;;;;;6.04;98.54;96002.81;5018561;28;20226;-64
2021/10/13 05:16:14;;;;;;;1.73;1.63;;;;;;;6.02;98.91;96009.97;5014511;28;20228;-65
2021/10/13 05:18:43;;;;;;;1.03;0.93;;;;;;;5.99;98.73;96009.28;5022961;28;20238;-65
2021/10/13 05:21:11;;;;;;;1.13;1.03;;;;;;;5.95;98.73;96015.81;5026356;28;20224;-66
2021/10/13 05:23:38;;;;;;;0.40;0.40;;;;;;;5.90;98.96;96019.78;5014377;28;20216;-66
2021/10/13 05:26:06;;;;;;;0.87;0.87;;;;;;;5.84;98.80;96021.19;5016221;28;20606;-66
2021/10/13 05:28:34;;;;;;;1.90;1.53;;;;;;;5.77;98.69;96029.78;5025257;28;20224;-66
2021/10/13 05:31:06;;;;;;;1.33;1.27;;;;;;;5.71;98.84;96025.94;5025801;28;20224;-66
2021/10/13 05:33:34;;;;;;;0.80;0.80;;;;;;;5.65;98.80;96027.34;5022757;28;20310;-65
2021/10/13 05:36:04;;;;;;;1.87;1.77;;;;;;;5.58;98.48;96028.09;5023062;28;20318;-66
2021/10/13 05:38:49;;;;;;;1.33;1.33;;;;;;;5.52;98.60;96033.88;5020258;28;20434;-66
2021/10/13 05:41:17;;;;;;;0.50;0.50;;;;;;;5.47;98.77;96042.16;5010714;28;20224;-65
2021/10/13 05:43:45;;;;;;;1.17;0.60;;;;;;;5.40;98.53;96041.09;5015622;28;21426;-66
2021/10/13 05:46:13;;;;;;;2.83;0.57;;;;;;;5.36;98.65;96035.31;5012321;28;20899;-65
2021/10/13 05:48:42;;;;;;;0.47;0.33;;;;;;;5.33;98.58;96040.84;5011868;28;20231;-65
2021/10/13 05:51:12;;;;;;;0.67;0.67;;;;;;;5.32;98.73;96054.06;5004040;28;20224;-65
2021/10/13 05:53:40;;;;;;;0.80;0.80;;;;;;;5.30;98.76;96062.06;5007924;28;20298;-66
2021/10/13 05:56:08;;;;;;;0.67;0.63;;;;;;;5.30;98.97;96067.28;5003900;28;20743;-64
2021/10/13 05:58:39;;;;;;;1.87;1.00;;;;;;;5.33;98.99;96068.78;5006467;28;20737;-66
2021/10/13 06:01:07;;;;;;;1.37;0.80;;;;;;;5.35;99.05;96065.06;5007243;28;20296;-64
2021/10/13 06:03:36;;;;;;;0.77;0.73;;;;;;;5.36;99.22;96078.97;5009913;28;20220;-66
2021/10/13 06:06:04;;;;;;;0.80;0.80;;;;;;;5.39;99.22;96076.91;5006199;28;20223;-65
2021/10/13 06:08:34;;;;;;;0.60;0.60;;;;;;;5.43;99.14;96083.50;5007838;28;20231;-65
2021/10/13 06:11:03;;;;;;;0.93;0.83;;;;;;;5.45;99.07;96080.75;5022950;28;20219;-65
2021/10/13 06:13:31;;;;;;;1.13;0.97;;;;;;;5.49;99.24;96076.88;5037761;28;20231;-65
2021/10/13 06:15:59;;;;;;;1.10;1.00;;;;;;;5.53;99.28;96074.78;5023495;28;20227;-66
2021/10/13 06:18:27;;;;;;;0.80;0.80;;;;;;;5.59;99.34;96090.78;5019883;28;20303;-64
2021/10/13 06:20:55;;;;;;;2.33;2.13;;;;;;;5.65;99.51;96084.13;5005489;28;20342;-64
2021/10/13 06:23:23;;;;;;;1.40;1.30;;;;;;;5.70;99.52;96089.75;5006922;28;20227;-66
2021/10/13 06:25:53;;;;;;;2.07;1.97;;;;;;;5.76;99.43;96089.19;5024035;28;20289;-65
2021/10/13 06:28:22;;;;;;;1.27;1.17;;;;;;;5.82;99.49;96087.78;5015349;28;20236;-65
2021/10/13 06:30:50;;;;;;;1.90;1.80;;;;;;;5.88;99.66;96092.47;5004128;28;20573;-64
2021/10/13 06:33:17;;;;;;;4.13;3.83;;;;;;;5.96;99.74;96096.03;5005387;28;20701;-66
2021/10/13 06:35:46;;;;;;;3.20;3.00;;;;;;;6.00;99.85;96101.81;5006703;28;20219;-66
2021/10/13 06:38:14;;;;;;;2.97;2.77;;;;;;;6.06;99.65;96106.47;5006788;28;20220;-66
2021/10/13 06:40:42;;;;;;;9.10;8.30;;;;;;;6.10;99.71;96110.44;5014900;28;20579;-66
2021/10/13 06:43:12;;;;;;;9.97;8.40;;;;;;;6.13;99.43;96118.03;5019660;28;20215;-65
2021/10/13 06:45:40;;;;;;;5.80;5.40;;;;;;;6.17;99.72;96123.78;5019603;28;20235;-65
2021/10/13 06:48:08;;;;;;;6.67;5.53;;;;;;;6.23;99.95;96118.81;5021424;28;20250;-66
2021/10/13 06:50:37;;;;;;;4.30;4.10;;;;;;;6.27;99.42;96124.56;5020612;28;20583;-65
2021/10/13 06:53:05;;;;;;;6.20;5.80;;;;;;;6.28;99.19;96127.03;5021142;28;20222;-66
2021/10/13 06:55:34;;;;;;;4.90;4.60;;;;;;;6.32;99.24;96130.22;5021159;28;20773;-66
2021/10/13 06:58:02;;;;;;;5.37;4.87;;;;;;;6.39;99.24;96139.13;5020844;28;20231;-66
2021/10/13 07:00:32;;;;;;;5.10;4.80;;;;;;;6.46;99.05;96140.19;5015978;28;20256;-66
2021/10/13 07:03:00;;;;;;;5.50;5.20;;;;;;;6.50;98.68;96146.81;5017782;28;20318;-66
2021/10/13 07:05:28;;;;;;;4.63;4.23;;;;;;;6.44;98.55;96152.63;5022628;28;20609;-64
2021/10/13 07:07:57;;;;;;;4.87;4.57;;;;;;;6.49;98.36;96150.41;5037099;28;20577;-66
2021/10/13 07:10:25;;;;;;;3.80;3.60;;;;;;;6.53;98.29;96162.22;5023668;28;20656;-66
2021/10/13 07:12:53;;;;;;;8.20;4.10;;;;;;;6.54;98.13;96158.63;5020671;28;20314;-65
2021/10/13 07:15:21;;;;;;;4.53;4.23;;;;;;;6.54;97.74;96163.88;5023940;28;20310;-66
2021/10/13 07:17:51;;;;;;;4.40;4.13;;;;;;;6.64;97.75;96168.25;5019963;28;20220;-66
2021/10/13 07:20:20;;;;;;;5.60;5.27;;;;;;;6.61;97.74;96173.78;5025251;28;20667;-66
2021/10/13 07:22:48;;;;;;;4.40;4.10;;;;;;;6.64;97.47;96171.69;5028041;28;20227;-66
2021/10/13 07:25:21;;;;;;;5.27;4.87;;;;;;;6.68;97.17;96170.44;5027595;28;20303;-66
2021/10/13 07:27:49;;;;;;;5.73;5.30;;;;;;;6.67;96.66;96178.44;5028135;28;20700;-66
2021/10/13 07:30:19;;;;;;;4.97;4.60;;;;;;;6.61;97.00;96179.03;5021819;28;20664;-66
2021/10/13 07:32:47;;;;;;;5.27;4.87;;;;;;;6.47;96.94;96175.09;5021455;28;20223;-66
2021/10/13 07:35:22;;;;;;;4.30;3.93;;;;;;;6.44;97.01;96180.63;5024256;28;20700;-66
2021/10/13 07:37:51;;;;;;;4.47;4.10;;;;;;;6.47;97.25;96183.78;5029004;28;20262;-65
2021/10/13 07:40:20;;;;;;;4.97;4.57;;;;;;;6.50;97.90;96178.25;5016246;28;20216;-66
2021/10/13 07:42:48;;;;;;;5.13;4.73;;;;;;;6.50;97.99;96183.50;5024306;28;20310;-66
2021/10/13 07:45:18;;;;;;;4.50;3.63;;;;;;;6.51;97.41;96200.88;5027198;28;20258;-65
2021/10/13 07:47:46;;;;;;;4.63;4.23;;;;;;;6.46;96.71;96208.34;5027517;28;20263;-66
2021/10/13 07:50:16;;;;;;;3.30;3.10;;;;;;;6.45;97.09;96196.22;5012389;28;20313;-65
2021/10/13 07:52:45;;;;;;;5.13;4.10;;;;;;;6.39;95.79;96199.41;5010492;28;20231;-66
2021/10/13 07:55:14;;;;;;;2.97;2.77;;;;;;;6.45;94.43;96198.00;5009238;28;20219;-65
2021/10/13 07:57:43;;;;;;;3.10;2.90;;;;;;;6.55;94.69;96202.22;5010022;28;20302;-66
2021/10/13 08:00:12;;;;;;;3.87;3.57;;;;;;;6.69;94.93;96202.75;5005810;28;20277;-65
2021/10/13 08:02:44;;;;;;;2.97;2.77;;;;;;;6.78;94.27;96201.84;5008665;28;20236;-65
2021/10/13 08:05:13;;;;;;;2.80;2.60;;;;;;;6.84;93.28;96209.13;5041145;28;20230;-65
2021/10/13 08:07:42;;;;;;;2.80;2.47;;;;;;;7.01;93.18;96208.31;5027524;28;20647;-66
2021/10/13 08:10:11;;;;;;;1.90;1.80;;;;;;;7.11;91.70;96203.00;5011064;28;20243;-66
2021/10/13 08:12:40;;;;;;;3.17;2.17;;;;;;;7.15;90.78;96209.63;5008645;28;20238;-66
2021/10/13 08:15:09;;;;;;;2.57;1.93;;;;;;;7.20;90.35;96209.16;5010161;28;20247;-64
2021/10/13 08:17:37;;;;;;;4.73;3.83;;;;;;;7.16;90.38;96216.53;5008673;28;20313;-66
2021/10/13 08:20:08;;;;;;;2.57;2.33;;;;;;;7.02;90.21;96215.22;5011465;28;20334;-66
2021/10/13 08:22:36;;;;;;;2.20;2.10;;;;;;;7.08;90.18;96219.88;5009221;28;20223;-65
2021/10/13 08:25:05;;;;;;;2.80;2.53;;;;;;;7.10;90.74;96220.56;5021229;28;20297;-66
2021/10/13 08:27:35;;;;;;;2.20;2.00;;;;;;;7.15;91.26;96221.94;5023893;28;20862;-64
2021/10/13 08:30:04;;;;;;;2.43;2.23;;;;;;;7.18;90.99;96229.50;5012665;28;20627;-66
2021/10/13 08:32:32;;;;;;;2.67;2.57;;;;;;;7.21;91.41;96219.50;5008916;28;20314;-66
2021/10/13 08:35:00;;;;;;;2.80;2.07;;;;;;;7.20;90.77;96222.28;5026341;28;20306;-64
2021/10/13 08:37:28;;;;;;;2.50;2.40;;;;;;;7.09;90.73;96225.97;5019680;28;20847;-65
2021/10/13 08:39:56;;;;;;;3.60;2.47;;;;;;;7.30;91.51;96220.41;5025883;28;20318;-65
2021/10/13 08:42:26;;;;;;;2.20;2.00;;;;;;;7.61;91.36;96226.13;5026233;28;20273;-66
2021/10/13 08:44:57;;;;;;;2.70;2.50;;;;;;;7.87;89.26;96220.91;5019873;28;20235;-66
2021/10/13 08:47:25;;;;;;;3.80;2.33;;;;;;;7.96;87.67;96226.06;5014464;28;20347;-66
2021/10/13 08:49:53;;;;;;;2.57;2.37;;;;;;;7.94;87.13;96216.66;5025988;28;20760;-66
2021/10/13 08:52:21;;;;;;;2.80;2.53;;;;;;;7.94;88.37;96221.94;5024709;28;20250;-66
2021/10/13 08:54:49;;;;;;;2.47;2.17;;;;;;;8.08;87.22;96224.00;5026872;28;20254;-66
2021/10/13 08:57:19;;;;;;;2.43;2.30;;;;;;;8.24;86.62;96220.66;5018440;28;20315;-64
2021/10/13 08:59:48;;;;;;;2.27;2.07;;;;;;;8.53;86.66;96223.81;5008200;28;20801;-66
2021/10/13 09:02:36;;;;;;;2.20;2.00;;;;;;;8.75;84.84;96232.09;5014310;28;20799;-66
2021/10/13 09:05:08;;;;;;;1.80;1.70;;;;;;;8.75;82.84;96225.03;5009738;28;20321;-65
2021/10/13 09:07:37;;;;;;;2.97;2.30;;;;;;;9.37;82.27;96222.91;5007026;28;21517;-66
2021/10/13 09:10:10;;;;;;;1.50;1.40;;;;;;;9.19;82.01;96219.59;5006605;28;20301;-64
2021/10/13 09:12:39;;;;;;;2.03;1.80;;;;;;;9.04;81.69;96226.44;5014962;28;20231;-66
2021/10/13 09:15:11;;;;;;;2.40;2.20;;;;;;;9.17;82.43;96226.00;5021857;28;20249;-65
2021/10/13 09:17:56;;;;;;;1.67;1.57;;;;;;;9.12;80.17;96229.09;5026323;28;20839;-66
2021/10/13 09:20:27;;;;;;;4.00;1.57;;;;;;;9.67;80.31;96231.16;5026906;28;20220;-66
2021/10/13 09:23:00;;;;;;;2.87;2.63;;;;;;;9.55;80.21;96230.69;5017551;28;20308;-64
2021/10/13 09:25:29;;;;;;;5.23;2.43;;;;;;;9.14;79.83;96229.75;5005052;28;20220;-65
2021/10/13 09:27:59;;;;;;;3.37;2.17;;;;;;;8.98;81.08;96227.94;5006628;28;20247;-65
2021/10/13 09:30:29;;;;;;;1.87;1.77;;;;;;;9.73;77.06;96222.63;5009401;28;20220;-65
2021/10/13 09:33:11;;;;;;;1.83;1.10;;;;;;;9.66;76.09;96224.25;5026269;28;20260;-66
2021/10/13 09:35:43;;;;;;;1.83;1.70;;;;;;;10.03;77.45;96217.66;5021073;28;20315;-66
2021/10/13 09:38:14;;;;;;;1.73;1.63;;;;;;;10.69;74.12;96217.34;5033432;28;20425;-66
2021/10/13 09:40:43;;;;;;;5.27;3.43;;;;;;;10.79;75.03;96214.53;5023726;28;20772;-66
2021/10/13 09:43:33;;;;;;;2.57;1.77;;;;;;;11.40;72.15;96204.94;5007481;28;20353;-67
2021/10/13 09:46:04;;;;;;;1.27;1.27;;;;;;;11.92;72.08;96213.00;5023711;28;20615;-66
2021/10/13 09:48:35;;;;;;;1.67;1.53;;;;;;;12.34;67.46;96208.13;5011500;28;20226;-66
2021/10/13 09:51:15;;;;;;;10.53;4.67;;;;;;;12.94;69.17;96213.25;5006258;28;20747;-66
2021/10/13 09:53:43;;;;;;;1.40;1.30;;;;;;;13.63;67.26;96202.25;4997910;28;20781;-64
2021/10/13 09:56:31;;;;;;;1.07;1.07;;;;;;;14.31;64.85;96191.97;5008916;28;20231;-67
2021/10/13 09:59:11;;;;;;;1.43;1.33;;;;;;;14.52;65.07;96195.41;4999336;28;20311;-66
2021/10/13 10:01:41;;;;;;;1.73;1.13;;;;;;;14.69;62.61;96195.09;5007028;28;20481;-66
2021/10/13 10:04:15;;;;;;;0.97;0.80;;;;;;;13.09;63.48;96200.00;5015856;28;20229;-66
2021/10/13 10:06:45;;;;;;;1.53;1.20;;;;;;;12.91;66.28;96203.03;5024826;28;20321;-67
2021/10/13 10:09:18;;;;;;;3.53;1.97;;;;;;;12.70;67.58;96201.13;5023146;28;20220;-65
2021/10/13 10:11:47;;;;;;;1.77;1.67;;;;;;;11.90;72.36;96208.91;5006984;28;20299;-66
2021/10/13 10:14:43;;;;;;;0.87;0.87;;;;;;;12.40;70.62;96212.72;5006376;28;20231;-66
2021/10/13 10:17:13;;;;;;;2.83;1.47;;;;;;;12.35;70.47;96200.03;5007002;28;20733;-66
2021/10/13 10:19:47;;;;;;;2.37;1.00;;;;;;;12.65;66.72;96205.34;5021666;28;20261;-66
2021/10/13 10:22:18;;;;;;;1.07;1.00;;;;;;;12.56;67.55;96209.09;5017013;28;20230;-66
2021/10/13 10:24:52;;;;;;;2.40;2.20;;;;;;;11.72;69.50;96213.66;5025373;28;20243;-65
2021/10/13 10:27:27;;;;;;;1.80;1.47;;;;;;;10.75;71.42;96210.56;5019956;28;20775;-65
2021/10/13 10:30:20;;;;;;;1.30;0.80;;;;;;;10.38;72.12;96214.66;5007974;28;20301;-66
2021/10/13 10:33:16;;;;;;;1.03;1.03;;;;;;;10.57;71.60;96209.97;5011393;28;20254;-66
2021/10/13 10:35:46;;;;;;;0.67;0.60;;;;;;;10.79;72.34;96217.19;5021071;28;20227;-65
2021/10/13 10:38:18;;;;;;;1.70;1.60;;;;;;;10.66;74.24;96215.06;5017454;28;20576;-66
2021/10/13 10:40:46;;;;;;;0.50;0.50;;;;;;;10.81;73.46;96212.53;5012123;28;20758;-66
2021/10/13 10:43:23;;;;;;;0.70;0.60;;;;;;;11.24;70.91;96203.22;5006069;28;20287;-65
2021/10/13 10:45:54;;;;;;;1.90;0.70;;;;;;;11.40;70.97;96213.69;5004593;28;20370;-66
2021/10/13 10:48:24;;;;;;;1.00;0.60;;;;;;;11.22;70.65;96214.97;5008304;28;20216;-66
2021/10/13 10:51:03;;;;;;;1.30;1.20;;;;;;;10.96;71.89;96220.53;5006989;28;21780;-65
2021/10/13 10:53:38;;;;;;;2.43;2.00;;;;;;;10.61;72.27;96216.59;5006742;28;20234;-66
2021/10/13 10:56:21;;;;;;;0.70;0.70;;;;;;;10.40;73.30;96220.56;5007750;28;20235;-66
2021/10/13 10:59:12;;;;;;;1.57;1.47;;;;;;;10.21;73.65;96215.66;5006465;28;20301;-65
2021/10/13 11:02:01;;;;;;;1.60;1.30;;;;;;;10.02;73.83;96221.28;5007059;28;20248;-66
2021/10/13 11:04:29;;;;;;;1.73;1.07;;;;;;;10.08;76.74;96226.72;5007410;28;20223;-66
2021/10/13 11:07:02;;;;;;;1.13;1.13;;;;;;;9.96;75.05;96223.56;5015055;28;20699;-66
2021/10/13 11:09:30;;;;;;;1.17;1.10;;;;;;;10.01;74.18;96224.91;5009350;28;20223;-65
2021/10/13 11:11:58;;;;;;;1.63;0.97;;;;;;;10.18;75.76;96226.53;5010160;28;20310;-66
2021/10/13 11:14:26;;;;;;;3.43;1.00;;;;;;;10.21;74.01;96227.03;5004517;28;20233;-64
2021/10/13 11:16:57;;;;;;;1.00;0.90;;;;;;;10.24;74.28;96216.19;5006948;28;20229;-66
2021/10/13 11:19:28;;;;;;;2.10;1.50;;;;;;;10.08;74.82;96226.72;5025545;28;20310;-66
2021/10/13 11:22:03;;;;;;;2.73;0.97;;;;;;;10.17;75.60;96222.25;5005907;28;20709;-64
2021/10/13 11:24:32;;;;;;;1.97;1.27;;;;;;;10.05;76.88;96220.94;5017920;28;20212;-65
2021/10/13 11:27:00;;;;;;;2.10;1.20;;;;;;;10.30;77.07;96221.75;5039361;28;20243;-66
2021/10/13 11:29:31;;;;;;;2.00;1.60;;;;;;;10.44;75.49;96224.53;5017256;28;20224;-66
2021/10/13 11:32:07;;;;;;;0.70;0.70;;;;;;;10.64;75.47;96217.06;5030904;28;20644;-66
2021/10/13 11:34:35;;;;;;;2.60;0.87;;;;;;;10.70;73.75;96226.13;5009963;28;20256;-64
2021/10/13 11:37:06;;;;;;;1.23;1.10;;;;;;;10.71;72.00;96217.22;5020069;28;20216;-66
2021/10/13 11:39:36;;;;;;;2.23;1.33;;;;;;;10.91;72.48;96218.44;5019673;28;20427;-66
2021/10/13 11:42:12;;;;;;;1.07;0.80;;;;;;;11.25;69.32;96223.38;5010647;28;20308;-65
2021/10/13 11:44:46;;;;;;;1.47;0.80;;;;;;;11.46;67.10;96222.75;5019910;28;20238;-65
2021/10/13 11:47:15;;;;;;;1.07;0.47;;;;;;;11.68;66.69;96216.63;5013839;28;20232;-65
2021/10/13 11:49:55;;;;;;;0.60;0.50;;;;;;;11.40;66.34;96218.16;5024705;28;20242;-66
2021/10/13 11:52:24;;;;;;;1.03;1.03;;;;;;;11.40;67.26;96218.97;5021904;28;20250;-66
2021/10/13 11:55:01;;;;;;;2.97;1.10;;;;;;;10.77;69.43;96221.78;5010158;28;20477;-66